createdAt,value
2019-03-15T00:01:00.135Z,11.23
2019-03-15T00:03:26.166Z,13.00
2019-03-15T00:05:52.193Z,15.70
2019-03-15T00:08:18.228Z,16.63
2019-03-15T00:10:44.240Z,19.73
2019-03-15T00:13:10.380Z,11.20
2019-03-15T00:15:36.395Z,13.37
2019-03-15T00:18:02.415Z,14.37
2019-03-15T00:20:28.435Z,17.60
2019-03-15T00:22:54.448Z,12.40
2019-03-15T00:25:20.488Z,20.30
2019-03-15T00:27:46.508Z,14.43
2019-03-15T00:30:12.681Z,19.67
2019-03-15T00:32:38.695Z,14.93
2019-03-15T00:35:06.419Z,30.97
2019-03-15T00:37:32.431Z,11.67
2019-03-15T00:39:58.531Z,13.10
2019-03-15T00:42:24.543Z,10.90
2019-03-15T00:44:50.580Z,21.07
2019-03-15T00:47:17.409Z,18.63
2019-03-15T00:49:43.897Z,18.50
2019-03-15T00:52:10.078Z,21.17
2019-03-15T00:54:36.104Z,16.00
2019-03-15T00:57:02.188Z,13.67
2019-03-15T00:59:28.248Z,19.17
2019-03-15T01:01:54.260Z,27.73
2019-03-15T01:04:20.292Z,22.13
2019-03-15T01:06:46.316Z,18.73
2019-03-15T01:09:12.391Z,22.77
2019-03-15T01:11:38.404Z,25.50
2019-03-15T01:14:04.437Z,14.70
2019-03-15T01:16:30.470Z,16.53
2019-03-15T01:18:56.550Z,12.60
2019-03-15T01:21:22.564Z,11.47
2019-03-15T01:23:48.591Z,12.63
2019-03-15T01:26:14.607Z,10.63
2019-03-15T01:28:40.637Z,11.53
2019-03-15T01:31:06.761Z,13.80
2019-03-15T01:33:32.811Z,16.93
2019-03-15T01:35:58.848Z,10.43
2019-03-15T01:38:24.859Z,16.75
2019-03-15T01:40:50.896Z,15.47
2019-03-15T01:43:16.943Z,14.97
2019-03-15T01:45:43.460Z,14.73
2019-03-15T01:48:09.589Z,15.60
2019-03-15T01:50:35.620Z,14.73
2019-03-15T01:53:01.636Z,19.47
2019-03-15T01:55:27.672Z,15.30
2019-03-15T01:57:53.687Z,14.77
2019-03-15T02:00:19.737Z,20.43
2019-03-15T02:02:45.748Z,28.60
2019-03-15T02:05:11.808Z,22.47
2019-03-15T02:07:37.829Z,15.37
2019-03-15T02:10:06.472Z,20.23
2019-03-15T02:12:32.487Z,27.17
2019-03-15T02:14:58.529Z,23.70
2019-03-15T02:17:24.550Z,20.33
2019-03-15T02:19:50.592Z,18.93
2019-03-15T02:22:16.598Z,24.10
2019-03-15T02:24:42.653Z,22.10
2019-03-15T02:27:08.668Z,23.47
2019-03-15T02:29:34.704Z,25.60
2019-03-15T02:32:00.753Z,21.93
2019-03-15T02:34:27.452Z,27.93
2019-03-15T02:36:53.789Z,25.20
2019-03-15T02:39:20.090Z,18.43
2019-03-15T02:41:46.242Z,22.50
2019-03-15T02:44:12.743Z,21.20
2019-03-15T02:46:38.987Z,27.13
2019-03-15T02:49:05.023Z,20.83
2019-03-15T02:51:31.057Z,29.03
2019-03-15T02:53:57.075Z,23.23
2019-03-15T02:56:23.111Z,18.23
2019-03-15T02:58:49.126Z,17.20
2019-03-15T03:01:15.233Z,27.73
2019-03-15T03:03:41.248Z,21.60
2019-03-15T03:06:07.286Z,22.53
2019-03-15T03:08:33.292Z,22.90
2019-03-15T03:10:59.324Z,18.00
2019-03-15T03:13:25.343Z,22.90
2019-03-15T03:15:51.906Z,21.40
2019-03-15T03:18:18.292Z,23.37
2019-03-15T03:20:44.326Z,19.00
2019-03-15T03:23:10.335Z,22.03
2019-03-15T03:25:36.561Z,34.10
2019-03-15T03:28:02.687Z,14.97
2019-03-15T03:30:28.758Z,22.77
2019-03-15T03:32:54.878Z,23.60
2019-03-15T03:35:21.072Z,20.77
2019-03-15T03:37:47.106Z,18.10
2019-03-15T03:40:13.255Z,22.60
2019-03-15T03:42:39.356Z,18.07
2019-03-15T03:45:07.363Z,29.47
2019-03-15T03:47:33.395Z,24.90
2019-03-15T03:49:59.415Z,29.37
2019-03-15T03:52:25.443Z,24.50
2019-03-15T03:54:51.458Z,30.92
2019-03-15T03:57:17.644Z,24.80
2019-03-15T03:59:43.651Z,21.90
2019-03-15T04:02:09.679Z,28.57
2019-03-15T04:04:35.691Z,27.00
2019-03-15T04:07:01.727Z,25.43
2019-03-15T04:09:27.735Z,31.43
2019-03-15T04:11:55.653Z,28.70
2019-03-15T04:14:21.681Z,23.63
2019-03-15T04:16:47.788Z,21.60
2019-03-15T04:19:13.843Z,26.07
2019-03-15T04:21:39.877Z,20.57
2019-03-15T04:24:05.892Z,30.73
2019-03-15T04:26:31.971Z,23.77
2019-03-15T04:28:57.983Z,25.43
2019-03-15T04:31:24.036Z,22.30
2019-03-15T04:33:50.139Z,18.77
2019-03-15T04:36:16.251Z,22.87
2019-03-15T04:38:42.280Z,26.43
2019-03-15T04:41:08.319Z,31.60
2019-03-15T04:43:34.334Z,23.80
2019-03-15T04:46:01.259Z,19.13
2019-03-15T04:48:27.279Z,21.30
2019-03-15T04:50:53.312Z,33.67
2019-03-15T04:53:19.324Z,20.60
2019-03-15T04:55:45.336Z,18.70
2019-03-15T04:58:11.368Z,30.70
2019-03-15T05:00:37.383Z,25.80
2019-03-15T05:03:03.815Z,22.50
2019-03-15T05:05:29.827Z,26.93
2019-03-15T05:07:55.855Z,28.43
2019-03-15T05:10:21.879Z,18.93
2019-03-15T05:12:47.931Z,21.10
2019-03-15T05:15:13.935Z,22.13
2019-03-15T05:17:39.965Z,30.40
2019-03-15T05:20:07.575Z,17.53
2019-03-15T05:22:33.600Z,22.80
2019-03-15T05:24:59.615Z,26.27
2019-03-15T05:27:25.875Z,25.33
2019-03-15T05:29:51.888Z,22.43
2019-03-15T05:32:17.936Z,24.67
2019-03-15T05:34:44.056Z,22.73
2019-03-15T05:37:10.180Z,14.40
2019-03-15T05:39:36.196Z,15.13
2019-03-15T05:42:03.022Z,21.17
2019-03-15T05:44:29.051Z,16.13
2019-03-15T05:46:55.079Z,14.60
2019-03-15T05:51:56.091Z,23.17
2019-03-15T05:54:22.102Z,16.60
2019-03-15T05:56:48.232Z,22.90
2019-03-15T05:59:14.239Z,24.37
2019-03-15T06:01:40.267Z,12.27
2019-03-15T06:04:06.284Z,11.87
2019-03-15T06:06:32.419Z,13.97
2019-03-15T06:08:58.442Z,14.33
2019-03-15T06:11:24.460Z,17.53
2019-03-15T06:13:50.596Z,12.97
2019-03-15T06:16:16.621Z,15.63
2019-03-15T06:18:42.648Z,16.07
2019-03-15T06:21:08.655Z,21.63
2019-03-15T06:23:34.687Z,13.90
2019-03-15T06:26:00.716Z,18.20
2019-03-15T06:28:27.447Z,11.67
2019-03-15T06:30:53.478Z,11.07
2019-03-15T06:33:19.507Z,14.13
2019-03-15T06:35:45.536Z,20.93
2019-03-15T06:38:11.582Z,12.70
2019-03-15T06:40:37.580Z,18.90
2019-03-15T06:43:03.614Z,13.87
2019-03-15T06:45:29.622Z,9.57
2019-03-15T06:47:55.657Z,14.33
2019-03-15T06:50:21.680Z,11.73
2019-03-15T06:52:47.839Z,7.80
2019-03-15T06:55:13.852Z,8.30
2019-03-15T06:57:39.899Z,7.93
2019-03-15T07:00:11.071Z,4.73
2019-03-15T07:02:37.477Z,5.70
2019-03-15T07:05:05.191Z,7.50
2019-03-15T07:07:31.246Z,10.10
2019-03-15T07:09:57.255Z,11.13
2019-03-15T07:12:23.535Z,8.63
2019-03-15T07:14:49.555Z,7.93
2019-03-15T07:17:15.632Z,10.30
2019-03-15T07:19:41.647Z,4.97
2019-03-15T07:22:07.655Z,7.43
2019-03-15T07:24:33.693Z,3.23
2019-03-15T07:27:12.163Z,9.77
2019-03-15T07:29:27.658Z,6.13
2019-03-15T07:31:53.703Z,4.40
2019-03-15T07:34:19.736Z,2.90
2019-03-15T07:36:45.748Z,3.57
2019-03-15T07:39:12.974Z,2.50
2019-03-15T07:41:39.333Z,5.20
2019-03-15T07:44:05.531Z,6.43
2019-03-15T07:46:31.535Z,3.50
2019-03-15T07:48:57.560Z,4.93
2019-03-15T07:51:23.593Z,4.00
2019-03-15T07:53:49.623Z,5.03
2019-03-15T07:56:15.633Z,4.60
2019-03-15T07:58:41.663Z,3.97
2019-03-15T08:01:07.778Z,3.10
2019-03-15T08:03:33.804Z,4.23
2019-03-15T08:05:59.820Z,1.57
2019-03-15T08:08:25.917Z,4.70
2019-03-15T08:10:54.894Z,3.17
2019-03-15T08:13:19.944Z,3.90
2019-03-15T08:15:45.948Z,2.50
2019-03-15T08:18:11.975Z,3.33
2019-03-15T08:20:37.987Z,2.53
2019-03-15T08:23:04.018Z,3.63
2019-03-15T08:25:30.024Z,2.17
2019-03-15T08:27:56.072Z,3.43
2019-03-15T08:30:22.083Z,1.63
2019-03-15T08:32:48.091Z,1.83
2019-03-15T08:35:14.128Z,2.30
2019-03-15T08:37:40.149Z,0.90
2019-03-15T08:40:14.415Z,0.50
2019-03-15T08:42:40.519Z,1.47
2019-03-15T08:45:10.226Z,0.60
2019-03-15T08:47:36.256Z,3.27
2019-03-15T08:50:05.393Z,0.93
2019-03-15T08:52:31.429Z,0.87
2019-03-15T08:55:05.028Z,1.80
2019-03-15T08:57:25.367Z,1.23
2019-03-15T08:59:56.918Z,1.20
2019-03-15T09:02:19.333Z,0.53
2019-03-15T09:04:45.360Z,1.57
2019-03-15T09:07:11.387Z,1.37
2019-03-15T09:09:37.435Z,0.80
2019-03-15T09:12:03.450Z,1.50
2019-03-15T09:14:29.544Z,1.60
2019-03-15T09:16:55.557Z,2.50
2019-03-15T09:19:21.961Z,1.13
2019-03-15T09:21:47.967Z,1.60
2019-03-15T09:24:13.995Z,0.77
2019-03-15T09:26:40.011Z,0.53
2019-03-15T09:29:06.018Z,3.03
2019-03-15T09:31:46.643Z,0.50
2019-03-15T09:34:00.008Z,0.93
2019-03-15T09:36:26.019Z,1.10
2019-03-15T09:38:52.051Z,1.10
2019-03-15T09:41:30.914Z,1.37
2019-03-15T09:43:45.996Z,1.17
2019-03-15T09:46:12.026Z,2.10
2019-03-15T09:48:38.041Z,2.87
2019-03-15T09:51:04.051Z,1.07
2019-03-15T09:53:30.076Z,3.13
2019-03-15T09:55:56.107Z,1.30
2019-03-15T09:58:22.135Z,0.70
2019-03-15T10:00:48.167Z,0.33
2019-03-15T10:03:21.984Z,0.20
2019-03-15T10:05:42.121Z,0.80
2019-03-15T10:08:08.151Z,1.27
2019-03-15T10:10:34.163Z,2.10
2019-03-15T10:13:05.650Z,0.43
2019-03-15T10:15:28.177Z,3.67
2019-03-15T10:18:14.080Z,0.93
2019-03-15T10:20:40.095Z,0.70
2019-03-15T10:23:06.643Z,1.60
2019-03-15T10:25:45.555Z,1.40
2019-03-15T10:28:00.959Z,3.43
2019-03-15T10:30:26.979Z,1.33
2019-03-15T10:32:53.125Z,0.93
2019-03-15T10:35:19.283Z,2.03
2019-03-15T10:37:45.315Z,0.90
2019-03-15T10:40:19.250Z,1.73
2019-03-15T10:42:45.255Z,2.67
2019-03-15T10:45:11.394Z,6.63
2019-03-15T10:47:37.400Z,1.63
2019-03-15T10:50:06.555Z,4.73
2019-03-15T10:52:32.568Z,1.50
2019-03-15T10:54:58.615Z,0.93
2019-03-15T10:57:24.627Z,1.83
2019-03-15T10:59:50.657Z,1.50
2019-03-15T11:02:16.825Z,2.77
2019-03-15T11:04:42.851Z,1.27
2019-03-15T11:07:08.865Z,1.70
2019-03-15T11:09:34.895Z,2.67
2019-03-15T11:12:00.911Z,1.77
2019-03-15T11:14:26.940Z,2.10
2019-03-15T11:16:52.951Z,1.63
2019-03-15T11:19:18.985Z,2.00
2019-03-15T11:21:44.996Z,0.50
2019-03-15T11:24:11.047Z,4.77
2019-03-15T11:26:37.143Z,2.00
2019-03-15T11:29:03.243Z,2.10
2019-03-15T11:31:29.279Z,3.47
2019-03-15T11:33:55.327Z,3.33
2019-03-15T11:36:21.335Z,2.73
2019-03-15T11:38:47.359Z,4.83
2019-03-15T11:41:13.404Z,3.13
2019-03-15T11:43:39.418Z,2.57
2019-03-15T11:46:05.454Z,6.97
2019-03-15T11:48:31.476Z,4.37
2019-03-15T11:50:57.508Z,1.83
2019-03-15T11:53:23.523Z,8.13
2019-03-15T11:55:49.559Z,5.13
2019-03-15T11:58:15.575Z,5.47
2019-03-15T12:00:41.659Z,3.17
2019-03-15T12:03:07.663Z,2.30
2019-03-15T12:05:33.695Z,4.77
2019-03-15T12:07:59.772Z,5.60
2019-03-15T12:10:25.807Z,2.93
2019-03-15T12:12:51.839Z,3.10
2019-03-15T12:15:18.376Z,2.70
2019-03-15T12:17:44.392Z,2.63
2019-03-15T12:20:11.403Z,4.20
2019-03-15T12:22:37.440Z,5.03
2019-03-15T12:25:23.353Z,2.30
2019-03-15T12:27:49.368Z,4.00
2019-03-15T12:30:15.907Z,4.33
2019-03-15T12:32:41.935Z,2.97
2019-03-15T12:35:09.660Z,3.50
2019-03-15T12:37:35.675Z,1.67
2019-03-15T12:40:04.324Z,1.70
2019-03-15T12:42:30.335Z,0.67
2019-03-15T12:44:56.352Z,5.40
2019-03-15T12:47:22.439Z,1.43
2019-03-15T12:49:48.451Z,0.60
2019-03-15T12:52:14.483Z,2.80
2019-03-15T12:54:40.611Z,1.10
2019-03-15T12:57:06.623Z,3.40
2019-03-15T12:59:32.635Z,2.93
2019-03-15T13:01:58.672Z,4.60
2019-03-15T13:04:24.687Z,7.13
2019-03-15T13:06:50.724Z,0.97
2019-03-15T13:09:16.826Z,1.33
2019-03-15T13:11:43.106Z,1.60
2019-03-15T13:14:10.311Z,1.03
2019-03-15T13:16:36.339Z,1.23
2019-03-15T13:19:02.443Z,0.50
2019-03-15T13:21:28.474Z,2.23
2019-03-15T13:23:54.484Z,1.03
2019-03-15T13:26:20.534Z,1.07
2019-03-15T13:28:46.545Z,0.83
2019-03-15T13:31:12.679Z,5.15
2019-03-15T13:33:38.695Z,1.93
2019-03-15T13:36:05.414Z,2.13
2019-03-15T13:38:32.119Z,1.90
2019-03-15T13:40:59.105Z,1.43
2019-03-15T13:43:25.355Z,0.70
2019-03-15T13:45:51.954Z,0.87
2019-03-15T13:48:18.516Z,6.27
2019-03-15T13:50:45.271Z,2.10
2019-03-15T13:53:11.967Z,2.97
2019-03-15T13:55:38.652Z,0.93
2019-03-15T13:58:05.448Z,1.20
2019-03-15T14:00:32.021Z,1.90
2019-03-15T14:02:58.779Z,1.57
2019-03-15T14:05:25.438Z,1.30
2019-03-15T14:07:51.539Z,1.67
2019-03-15T14:10:17.560Z,2.13
2019-03-15T14:12:43.646Z,2.13
2019-03-15T14:15:19.467Z,1.50
2019-03-15T14:17:45.998Z,1.07
2019-03-15T14:20:12.645Z,2.60
2019-03-15T14:22:38.759Z,3.37
2019-03-15T14:25:10.439Z,2.43
2019-03-15T14:27:37.931Z,1.70
2019-03-15T14:30:07.561Z,1.70
2019-03-15T14:32:33.596Z,3.30
2019-03-15T14:34:59.611Z,2.00
2019-03-15T14:37:25.886Z,2.00
2019-03-15T14:39:52.068Z,4.43
2019-03-15T14:42:18.133Z,0.73
2019-03-15T14:44:44.360Z,2.70
2019-03-15T14:47:10.563Z,1.90
2019-03-15T14:49:38.183Z,1.90
2019-03-15T14:52:04.520Z,1.83
2019-03-15T14:54:30.527Z,1.83
2019-03-15T14:56:56.579Z,11.40
2019-03-15T14:59:22.602Z,2.87
2019-03-15T15:01:48.651Z,1.63
2019-03-15T15:04:16.330Z,2.37
2019-03-15T15:06:42.518Z,1.20
2019-03-15T15:09:08.531Z,1.40
2019-03-15T15:11:34.560Z,2.10
2019-03-15T15:14:01.659Z,5.67
2019-03-15T15:16:27.681Z,3.37
2019-03-15T15:18:53.708Z,0.90
2019-03-15T15:21:19.719Z,2.80
2019-03-15T15:23:45.763Z,2.93
2019-03-15T15:26:11.775Z,4.13
2019-03-15T15:28:37.815Z,2.30
2019-03-15T15:31:03.837Z,1.70
2019-03-15T15:33:29.987Z,0.90
2019-03-15T15:35:55.995Z,0.87
2019-03-15T15:38:22.064Z,4.90
2019-03-15T15:40:48.074Z,4.73
2019-03-15T15:43:14.120Z,3.20
2019-03-15T15:45:40.127Z,1.53
2019-03-15T15:48:06.168Z,2.30
2019-03-15T15:50:32.192Z,2.93
2019-03-15T15:52:58.226Z,1.03
2019-03-15T15:55:24.254Z,1.90
2019-03-15T15:57:50.295Z,1.10
2019-03-15T16:00:38.093Z,5.27
2019-03-15T16:03:04.127Z,4.03
2019-03-15T16:05:30.144Z,1.40
2019-03-15T16:07:56.761Z,2.17
2019-03-15T16:10:23.008Z,2.10
2019-03-15T16:12:49.072Z,2.03
2019-03-15T16:15:16.603Z,4.23
2019-03-15T16:17:45.263Z,0.97
2019-03-15T16:20:10.618Z,1.20
2019-03-15T16:22:36.836Z,1.33
2019-03-15T16:25:04.956Z,1.23
2019-03-15T16:27:31.004Z,3.93
2019-03-15T16:29:57.060Z,1.50
2019-03-15T16:32:23.110Z,1.10
2019-03-15T16:34:49.183Z,1.27
2019-03-15T16:37:15.213Z,2.67
2019-03-15T16:39:41.412Z,1.00
2019-03-15T16:42:07.567Z,2.13
2019-03-15T16:44:33.720Z,2.63
2019-03-15T16:46:59.930Z,2.67
2019-03-15T16:49:26.167Z,0.77
2019-03-15T16:51:52.399Z,1.20
2019-03-15T16:54:18.848Z,0.80
2019-03-15T16:56:45.507Z,1.60
2019-03-15T16:59:11.683Z,4.10
2019-03-15T17:01:37.718Z,0.83
2019-03-15T17:04:03.757Z,1.30
2019-03-15T17:06:29.839Z,5.03
2019-03-15T17:08:55.875Z,2.40
2019-03-15T17:11:21.968Z,0.20
2019-03-15T17:13:48.052Z,2.27
2019-03-15T17:16:14.182Z,1.20
2019-03-15T17:18:40.483Z,0.63
2019-03-15T17:21:06.632Z,0.57
2019-03-15T17:23:32.657Z,1.70
2019-03-15T17:25:58.669Z,1.43
2019-03-15T17:28:24.712Z,2.07
2019-03-15T17:30:50.815Z,3.23
2019-03-15T17:33:16.915Z,1.40
2019-03-15T17:35:42.915Z,1.83
2019-03-15T17:38:08.959Z,5.03
2019-03-15T17:40:34.989Z,4.73
2019-03-15T17:43:00.991Z,2.77
2019-03-15T17:45:27.035Z,4.33
2019-03-15T17:47:53.047Z,4.73
2019-03-15T17:50:40.876Z,1.43
2019-03-15T17:53:06.893Z,0.93
2019-03-15T17:55:32.931Z,2.43
2019-03-15T17:57:58.957Z,2.33
2019-03-15T18:00:42.409Z,2.67
2019-03-15T18:03:20.074Z,2.20
2019-03-15T18:05:36.673Z,1.93
2019-03-15T18:08:03.064Z,2.07
2019-03-15T18:10:32.477Z,2.03
2019-03-15T18:12:57.194Z,3.37
2019-03-15T18:15:23.275Z,3.67
2019-03-15T18:17:49.291Z,5.10
2019-03-15T18:20:15.457Z,2.92
2019-03-15T18:22:41.487Z,2.37
2019-03-15T18:25:09.540Z,4.43
2019-03-15T18:27:35.556Z,0.90
2019-03-15T18:30:02.529Z,2.70
2019-03-15T18:32:28.559Z,2.10
2019-03-15T18:34:54.595Z,5.63
2019-03-15T18:37:20.653Z,1.83
2019-03-15T18:39:46.696Z,3.73
2019-03-15T18:42:12.707Z,4.70
2019-03-15T18:44:38.755Z,1.10
2019-03-15T18:47:04.767Z,3.10
2019-03-15T18:49:30.811Z,3.57
2019-03-15T18:51:56.893Z,2.37
2019-03-15T18:54:42.806Z,1.50
2019-03-15T18:57:08.820Z,3.40
2019-03-15T18:59:39.835Z,2.33
2019-03-15T19:02:02.947Z,6.30
2019-03-15T19:04:28.975Z,3.07
2019-03-15T19:06:54.989Z,1.87
2019-03-15T19:09:21.047Z,3.50
2019-03-15T19:11:47.080Z,1.60
2019-03-15T19:14:13.146Z,3.00
2019-03-15T19:16:39.156Z,1.33
2019-03-15T19:19:05.367Z,3.17
2019-03-15T19:21:31.396Z,2.47
2019-03-15T19:23:57.443Z,3.97
2019-03-15T19:26:23.456Z,2.90
2019-03-15T19:28:49.472Z,4.53
2019-03-15T19:31:15.567Z,3.62
2019-03-15T19:33:41.576Z,1.47
2019-03-15T19:36:07.610Z,3.90
2019-03-15T19:38:33.619Z,2.40
2019-03-15T19:40:59.669Z,2.97
2019-03-15T19:43:29.087Z,3.73
2019-03-15T19:45:53.644Z,4.37
2019-03-15T19:48:19.671Z,3.10
2019-03-15T19:50:45.703Z,4.67
2019-03-15T19:53:11.776Z,5.07
2019-03-15T19:55:37.815Z,2.97
2019-03-15T19:58:03.828Z,3.40
2019-03-15T20:00:29.967Z,3.53
2019-03-15T20:02:55.979Z,3.83
2019-03-15T20:05:22.024Z,4.17
2019-03-15T20:07:48.176Z,2.87
2019-03-15T20:10:16.910Z,5.13
2019-03-15T20:12:43.141Z,4.17
2019-03-15T20:15:12.079Z,3.20
2019-03-15T20:17:38.142Z,3.10
2019-03-15T20:20:11.826Z,2.80
2019-03-15T20:22:37.832Z,3.47
2019-03-15T20:25:07.333Z,1.80
2019-03-15T20:27:33.343Z,3.30
2019-03-15T20:29:59.383Z,3.03
2019-03-15T20:32:25.420Z,4.13
2019-03-15T20:34:51.461Z,6.30
2019-03-15T20:37:17.570Z,2.13
2019-03-15T20:39:43.623Z,2.67
2019-03-15T20:42:09.639Z,3.63
2019-03-15T20:44:35.776Z,5.60
2019-03-15T20:47:01.795Z,5.97
2019-03-15T20:49:27.831Z,5.20
2019-03-15T20:51:53.839Z,6.13
2019-03-15T20:54:19.851Z,2.70
2019-03-15T20:56:45.893Z,5.40
2019-03-15T20:59:11.911Z,4.00
2019-03-15T21:01:38.027Z,2.83
2019-03-15T21:04:04.031Z,7.07
2019-03-15T21:06:30.075Z,2.97
2019-03-15T21:08:56.163Z,8.20
2019-03-15T21:11:22.327Z,13.80
2019-03-15T21:13:48.345Z,6.87
2019-03-15T21:16:14.380Z,4.93
2019-03-15T21:18:40.450Z,4.53
2019-03-15T21:21:06.587Z,8.20
2019-03-15T21:23:32.635Z,8.47
2019-03-15T21:26:04.792Z,4.97
2019-03-15T21:28:30.799Z,4.17
2019-03-15T21:30:56.856Z,7.57
2019-03-15T21:33:22.872Z,4.80
2019-03-15T21:35:48.907Z,6.77
2019-03-15T21:38:14.923Z,5.20
2019-03-15T21:40:40.983Z,7.40
2019-03-15T21:43:07.015Z,5.23
2019-03-15T21:45:33.047Z,9.83
2019-03-15T21:47:59.064Z,6.20
2019-03-15T21:50:25.099Z,5.07
2019-03-15T21:52:51.110Z,4.87
2019-03-15T21:55:17.360Z,5.60
2019-03-15T21:57:43.458Z,5.50
2019-03-15T22:00:12.188Z,4.30
2019-03-15T22:02:38.255Z,5.27
2019-03-15T22:05:06.042Z,7.47
2019-03-15T22:07:32.068Z,4.63
2019-03-15T22:09:58.089Z,9.10
2019-03-15T22:12:24.127Z,2.90
2019-03-15T22:14:50.153Z,6.97
2019-03-15T22:17:16.180Z,12.93
2019-03-15T22:19:42.191Z,6.67
2019-03-15T22:22:08.295Z,6.47
2019-03-15T22:24:34.308Z,6.17
2019-03-15T22:27:01.907Z,5.85
2019-03-15T22:29:27.917Z,3.50
2019-03-15T22:31:54.012Z,8.67
2019-03-15T22:34:20.031Z,12.57
2019-03-15T22:36:46.070Z,9.70
2019-03-15T22:39:12.087Z,7.63
2019-03-15T22:41:38.129Z,11.95
2019-03-15T22:44:04.135Z,6.90
2019-03-15T22:46:30.651Z,9.77
2019-03-15T22:48:56.672Z,10.83
2019-03-15T22:51:22.780Z,6.47
2019-03-15T22:53:48.791Z,3.47
2019-03-15T22:56:14.819Z,5.17
2019-03-15T22:58:40.847Z,8.67
2019-03-15T23:01:06.963Z,5.40
2019-03-15T23:03:33.115Z,11.90
2019-03-15T23:05:59.216Z,4.70
2019-03-15T23:08:25.246Z,5.17
2019-03-15T23:10:51.259Z,5.67
2019-03-15T23:13:17.365Z,7.90
2019-03-15T23:15:43.383Z,6.07
2019-03-15T23:18:09.443Z,9.53
2019-03-15T23:20:35.459Z,7.53
2019-03-15T23:23:01.529Z,5.07
2019-03-15T23:25:27.592Z,10.23
2019-03-15T23:27:53.703Z,5.73
2019-03-15T23:30:19.727Z,8.83
2019-03-15T23:32:45.748Z,6.87
2019-03-15T23:35:14.044Z,9.33
2019-03-15T23:37:39.891Z,7.20
2019-03-15T23:40:07.807Z,7.07
2019-03-15T23:45:07.699Z,9.05
2019-03-15T23:47:33.728Z,9.37
2019-03-15T23:49:59.792Z,14.30
2019-03-15T23:52:25.827Z,2.60
2019-03-15T23:54:51.847Z,8.03
2019-03-15T23:57:17.883Z,6.53
2019-03-15T23:59:43.900Z,7.63
